createdAt,value
2023-05-06T21:59:50.178Z,4.63
2023-05-06T22:02:16.990Z,4.47
2023-05-06T22:04:43.817Z,3.72
2023-05-06T22:07:10.769Z,3.55
2023-05-06T22:09:37.728Z,4.90
2023-05-06T22:12:06.749Z,4.03
2023-05-06T22:14:41.258Z,3.60
2023-05-06T22:17:10.501Z,3.27
2023-05-06T22:19:38.435Z,3.22
2023-05-06T22:22:05.871Z,3.90
2023-05-06T22:24:32.726Z,4.57
2023-05-06T22:26:59.626Z,4.20
2023-05-06T22:29:26.595Z,4.82
2023-05-06T22:31:53.447Z,4.80
2023-05-06T22:34:21.102Z,4.55
2023-05-06T22:36:47.964Z,4.50
2023-05-06T22:39:14.749Z,3.70
2023-05-06T22:41:41.672Z,4.10
2023-05-06T22:44:08.497Z,3.73
2023-05-06T22:46:35.316Z,3.00
2023-05-06T22:49:04.555Z,3.03
2023-05-06T22:51:33.226Z,2.55
2023-05-06T22:54:00.146Z,2.38
2023-05-06T22:56:26.962Z,3.10
2023-05-06T22:58:53.953Z,2.70
2023-05-06T23:01:20.855Z,2.55
2023-05-06T23:03:47.925Z,2.90
2023-05-06T23:06:14.700Z,2.50
2023-05-06T23:08:41.446Z,2.42
2023-05-06T23:11:08.263Z,1.95
2023-05-06T23:13:36.466Z,2.88
2023-05-06T23:16:03.847Z,3.20
2023-05-06T23:18:30.956Z,3.50
2023-05-06T23:20:57.723Z,3.15
2023-05-06T23:23:24.561Z,2.83
2023-05-06T23:25:53.282Z,3.20
2023-05-06T23:28:21.059Z,4.22
2023-05-06T23:30:47.871Z,5.45
2023-05-06T23:33:14.898Z,4.20
2023-05-06T23:35:41.821Z,3.77
2023-05-06T23:38:08.661Z,3.35
2023-05-06T23:40:37.968Z,3.55
2023-05-06T23:43:07.083Z,3.37
2023-05-06T23:45:33.826Z,2.97
2023-05-06T23:48:00.761Z,3.80
2023-05-06T23:50:27.550Z,4.22
2023-05-06T23:52:54.376Z,4.38
2023-05-06T23:55:21.308Z,3.95
2023-05-06T23:57:48.101Z,3.45
